Oldebroek, Netherlands
Current Conditions -  °F | °C
As of 1:25 AM on Sunday 21 Dec 2014 (Local Time) from EHDL Reporting Station
Scattered Clouds Scattered Clouds  
Wind Chill: 34°   Ceiling: Unl
Heat Index: 39°   Visibility: 6mi
Dew Point: 36°   Wind: 8mph
Humidity: 87%   Direction: 250°WSW
Pressure: 30.3"   Gusts: NA
Location:  52.45°N, 5.9°E
Report Text: EHDL 210025Z AUTO 25007KT 9999 FEW098 SCT150 04/02 Q1026 BLU
Loading
Personal Weather Stations






























Interactive Weather Map New forecast layout! Learn more

10-Day Weather Forecast

Advertisements
Track Severe Weather on mobile